Terminal Aerodrome Forecast
Issued by NWS

Home | Current Version | Previous Version | Text Only | Print | Product List | Glossary On
Versions: 1 2 3 4 5 6 7 8 9 10 11 12 13 14
297
FTUS43 KMQT 231120
TAFCMX
TAF
KCMX 231120Z 2312/2412 17007KT P6SM BKN070
     FM232000 18010KT P6SM VCSH OVC070
     FM240100 17008KT P6SM VCSH OVC025
     FM240200 19008KT 6SM -RA OVC020
     FM240300 19008KT 5SM -RA OVC015
     FM240500 23005KT 4SM -RA OVC008
     FM240600 24004KT 4SM -RA OVC003=

USA.gov is the U.S. government's official web portal to all federal, state and local government web resources and services.